sensor_id;sensor_type;location;lat;lon;timestamp;pressure;altitude;pressure_sealevel;temperature
77223;BMP280;66218;48.928;9.140;2023-04-06T00:01:17;98769.44;;;2.64
77223;BMP280;66218;48.928;9.140;2023-04-06T00:03:42;98766.56;;;2.62
77223;BMP280;66218;48.928;9.140;2023-04-06T00:06:07;98766.56;;;2.62
77223;BMP280;66218;48.928;9.140;2023-04-06T00:08:33;98757.00;;;2.51
77223;BMP280;66218;48.928;9.140;2023-04-06T00:10:58;98761.47;;;2.46
77223;BMP280;66218;48.928;9.140;2023-04-06T00:13:23;98753.59;;;2.41
77223;BMP280;66218;48.928;9.140;2023-04-06T00:15:49;98754.00;;;2.37
77223;BMP280;66218;48.928;9.140;2023-04-06T00:18:14;98758.63;;;2.35
77223;BMP280;66218;48.928;9.140;2023-04-06T00:20:40;98756.78;;;2.27
77223;BMP280;66218;48.928;9.140;2023-04-06T00:23:05;98751.66;;;2.22
77223;BMP280;66218;48.928;9.140;2023-04-06T00:25:31;98756.66;;;2.16
77223;BMP280;66218;48.928;9.140;2023-04-06T00:27:56;98754.25;;;2.10
77223;BMP280;66218;48.928;9.140;2023-04-06T00:30:21;98755.38;;;2.07
77223;BMP280;66218;48.928;9.140;2023-04-06T00:32:47;98759.53;;;1.98
77223;BMP280;66218;48.928;9.140;2023-04-06T00:35:12;98759.13;;;1.92
77223;BMP280;66218;48.928;9.140;2023-04-06T00:37:38;98752.69;;;1.88
77223;BMP280;66218;48.928;9.140;2023-04-06T00:40:03;98761.91;;;1.73
77223;BMP280;66218;48.928;9.140;2023-04-06T00:42:29;98752.00;;;1.68
77223;BMP280;66218;48.928;9.140;2023-04-06T00:44:56;98752.00;;;1.68
77223;BMP280;66218;48.928;9.140;2023-04-06T00:47:23;98753.41;;;1.59
77223;BMP280;66218;48.928;9.140;2023-04-06T00:49:50;98750.56;;;1.57
77223;BMP280;66218;48.928;9.140;2023-04-06T00:52:16;98743.53;;;1.54
77223;BMP280;66218;48.928;9.140;2023-04-06T00:54:41;98750.13;;;1.51
77223;BMP280;66218;48.928;9.140;2023-04-06T00:57:06;98741.25;;;1.50
77223;BMP280;66218;48.928;9.140;2023-04-06T00:59:32;98736.97;;;1.47
77223;BMP280;66218;48.928;9.140;2023-04-06T01:01:58;98739.25;;;1.51
77223;BMP280;66218;48.928;9.140;2023-04-06T01:04:23;98739.25;;;1.51
77223;BMP280;66218;48.928;9.140;2023-04-06T01:06:49;98731.38;;;1.45
77223;BMP280;66218;48.928;9.140;2023-04-06T01:09:15;98731.25;;;1.43
77223;BMP280;66218;48.928;9.140;2023-04-06T01:11:41;98731.97;;;1.44
77223;BMP280;66218;48.928;9.140;2023-04-06T01:14:06;98734.69;;;1.44
77223;BMP280;66218;48.928;9.140;2023-04-06T01:16:32;98729.25;;;1.44
77223;BMP280;66218;48.928;9.140;2023-04-06T01:18:58;98729.25;;;1.44
77223;BMP280;66218;48.928;9.140;2023-04-06T01:21:23;98718.50;;;1.36
77223;BMP280;66218;48.928;9.140;2023-04-06T01:23:48;98728.66;;;1.36
77223;BMP280;66218;48.928;9.140;2023-04-06T01:26:14;98729.94;;;1.35
77223;BMP280;66218;48.928;9.140;2023-04-06T01:28:39;98732.66;;;1.35
77223;BMP280;66218;48.928;9.140;2023-04-06T01:31:06;98723.66;;;1.32
77223;BMP280;66218;48.928;9.140;2023-04-06T01:33:32;98731.09;;;1.32
77223;BMP280;66218;48.928;9.140;2023-04-06T01:35:58;98718.22;;;1.32
77223;BMP280;66218;48.928;9.140;2023-04-06T01:38:23;98712.66;;;1.30
77223;BMP280;66218;48.928;9.140;2023-04-06T01:40:49;98715.50;;;1.32
77223;BMP280;66218;48.928;9.140;2023-04-06T01:43:14;98719.06;;;1.35
77223;BMP280;66218;48.928;9.140;2023-04-06T01:45:39;98719.06;;;1.35
77223;BMP280;66218;48.928;9.140;2023-04-06T01:48:05;98709.06;;;1.27
77223;BMP280;66218;48.928;9.140;2023-04-06T01:50:30;98713.22;;;1.29
77223;BMP280;66218;48.928;9.140;2023-04-06T01:52:56;98713.22;;;1.29
77223;BMP280;66218;48.928;9.140;2023-04-06T01:55:21;98708.19;;;1.25
77223;BMP280;66218;48.928;9.140;2023-04-06T01:57:47;98714.50;;;1.27
77223;BMP280;66218;48.928;9.140;2023-04-06T02:00:13;98711.78;;;1.27
77223;BMP280;66218;48.928;9.140;2023-04-06T02:02:38;98709.22;;;1.30
77223;BMP280;66218;48.928;9.140;2023-04-06T02:05:04;98709.22;;;1.30
77223;BMP280;66218;48.928;9.140;2023-04-06T02:07:29;98695.47;;;1.27
77223;BMP280;66218;48.928;9.140;2023-04-06T02:09:55;98709.38;;;1.32
77223;BMP280;66218;48.928;9.140;2023-04-06T02:12:21;98702.75;;;1.35
77223;BMP280;66218;48.928;9.140;2023-04-06T02:14:46;98707.78;;;1.38
77223;BMP280;66218;48.928;9.140;2023-04-06T02:17:12;98705.47;;;1.44
77223;BMP280;66218;48.928;9.140;2023-04-06T02:19:37;98710.47;;;1.67
77223;BMP280;66218;48.928;9.140;2023-04-06T02:22:02;98710.47;;;1.67
77223;BMP280;66218;48.928;9.140;2023-04-06T02:24:28;98702.59;;;1.71
77223;BMP280;66218;48.928;9.140;2023-04-06T02:26:53;98701.88;;;1.81
77223;BMP280;66218;48.928;9.140;2023-04-06T02:29:18;98701.00;;;1.88
77223;BMP280;66218;48.928;9.140;2023-04-06T02:31:44;98699.28;;;1.92
77223;BMP280;66218;48.928;9.140;2023-04-06T02:34:09;98698.97;;;1.98
77223;BMP280;66218;48.928;9.140;2023-04-06T02:36:37;98695.78;;;2.11
77223;BMP280;66218;48.928;9.140;2023-04-06T02:39:02;98695.78;;;2.11
77223;BMP280;66218;48.928;9.140;2023-04-06T02:41:28;98695.78;;;2.11
77223;BMP280;66218;48.928;9.140;2023-04-06T02:43:53;98688.81;;;2.08
77223;BMP280;66218;48.928;9.140;2023-04-06T02:46:19;98691.53;;;2.08
77223;BMP280;66218;48.928;9.140;2023-04-06T02:48:44;98685.94;;;2.06
77223;BMP280;66218;48.928;9.140;2023-04-06T02:51:10;98698.38;;;2.09
77223;BMP280;66218;48.928;9.140;2023-04-06T02:53:35;98681.63;;;2.13
77223;BMP280;66218;48.928;9.140;2023-04-06T02:56:00;98679.19;;;2.17
77223;BMP280;66218;48.928;9.140;2023-04-06T02:58:26;98683.75;;;2.14
77223;BMP280;66218;48.928;9.140;2023-04-06T03:00:51;98684.78;;;2.09
77223;BMP280;66218;48.928;9.140;2023-04-06T03:03:16;98687.34;;;2.07
77223;BMP280;66218;48.928;9.140;2023-04-06T03:05:42;98687.34;;;2.07
77223;BMP280;66218;48.928;9.140;2023-04-06T03:08:07;98678.94;;;2.03
77223;BMP280;66218;48.928;9.140;2023-04-06T03:10:32;98676.06;;;2.01
77223;BMP280;66218;48.928;9.140;2023-04-06T03:12:58;98685.25;;;1.96
77223;BMP280;66218;48.928;9.140;2023-04-06T03:15:23;98675.38;;;1.91
77223;BMP280;66218;48.928;9.140;2023-04-06T03:17:48;98683.28;;;1.87
77223;BMP280;66218;48.928;9.140;2023-04-06T03:20:14;98686.44;;;1.83
77223;BMP280;66218;48.928;9.140;2023-04-06T03:22:39;98680.56;;;1.77
77223;BMP280;66218;48.928;9.140;2023-04-06T03:25:05;98683.44;;;1.69
77223;BMP280;66218;48.928;9.140;2023-04-06T03:27:30;98682.88;;;1.61
77223;BMP280;66218;48.928;9.140;2023-04-06T03:29:56;98687.16;;;1.55
77223;BMP280;66218;48.928;9.140;2023-04-06T03:32:21;98686.31;;;1.52
77223;BMP280;66218;48.928;9.140;2023-04-06T03:34:47;98692.47;;;1.52
77223;BMP280;66218;48.928;9.140;2023-04-06T03:37:12;98684.44;;;1.45
77223;BMP280;66218;48.928;9.140;2023-04-06T03:39:37;98683.44;;;1.40
77223;BMP280;66218;48.928;9.140;2023-04-06T03:42:03;98687.63;;;1.32
77223;BMP280;66218;48.928;9.140;2023-04-06T03:44:28;98692.63;;;1.25
77223;BMP280;66218;48.928;9.140;2023-04-06T03:46:53;98690.03;;;1.18
77223;BMP280;66218;48.928;9.140;2023-04-06T03:49:19;98698.91;;;1.18
77223;BMP280;66218;48.928;9.140;2023-04-06T03:51:44;98703.88;;;1.12
77223;BMP280;66218;48.928;9.140;2023-04-06T03:54:10;98703.88;;;1.12
77223;BMP280;66218;48.928;9.140;2023-04-06T03:56:35;98699.59;;;0.99
77223;BMP280;66218;48.928;9.140;2023-04-06T03:59:00;98699.84;;;0.94
77223;BMP280;66218;48.928;9.140;2023-04-06T04:01:27;98713.03;;;0.97
77223;BMP280;66218;48.928;9.140;2023-04-06T04:03:53;98705.84;;;0.92
77223;BMP280;66218;48.928;9.140;2023-04-06T04:06:18;98705.84;;;0.92
77223;BMP280;66218;48.928;9.140;2023-04-06T04:08:43;98697.13;;;0.84
77223;BMP280;66218;48.928;9.140;2023-04-06T04:11:09;98699.41;;;0.78
77223;BMP280;66218;48.928;9.140;2023-04-06T04:13:34;98698.66;;;0.77
77223;BMP280;66218;48.928;9.140;2023-04-06T04:16:00;98701.38;;;0.77
77223;BMP280;66218;48.928;9.140;2023-04-06T04:18:25;98699.81;;;0.74
77223;BMP280;66218;48.928;9.140;2023-04-06T04:20:50;98696.09;;;0.70
77223;BMP280;66218;48.928;9.140;2023-04-06T04:23:16;98706.47;;;0.64
77223;BMP280;66218;48.928;9.140;2023-04-06T04:25:43;98707.63;;;0.61
77223;BMP280;66218;48.928;9.140;2023-04-06T04:28:08;98700.59;;;0.58
77223;BMP280;66218;48.928;9.140;2023-04-06T04:30:33;98711.06;;;0.61
77223;BMP280;66218;48.928;9.140;2023-04-06T04:32:59;98711.06;;;0.61
77223;BMP280;66218;48.928;9.140;2023-04-06T04:35:24;98704.75;;;0.59
77223;BMP280;66218;48.928;9.140;2023-04-06T04:37:50;98714.63;;;0.64
77223;BMP280;66218;48.928;9.140;2023-04-06T04:40:15;98706.19;;;0.60
77223;BMP280;66218;48.928;9.140;2023-04-06T04:42:41;98714.19;;;0.58
77223;BMP280;66218;48.928;9.140;2023-04-06T04:45:07;98706.75;;;0.58
77223;BMP280;66218;48.928;9.140;2023-04-06T04:47:32;98715.47;;;0.57
77223;BMP280;66218;48.928;9.140;2023-04-06T04:49:57;98710.75;;;0.57
77223;BMP280;66218;48.928;9.140;2023-04-06T04:52:23;98715.69;;;0.78
77223;BMP280;66218;48.928;9.140;2023-04-06T04:54:48;98717.72;;;0.87
77223;BMP280;66218;48.928;9.140;2023-04-06T04:57:13;98718.72;;;0.92
77223;BMP280;66218;48.928;9.140;2023-04-06T04:59:39;98715.44;;;0.93
77223;BMP280;66218;48.928;9.140;2023-04-06T05:02:04;98713.03;;;0.97
77223;BMP280;66218;48.928;9.140;2023-04-06T05:04:30;98719.47;;;1.02
77223;BMP280;66218;48.928;9.140;2023-04-06T05:07:05;98722.63;;;1.08
77223;BMP280;66218;48.928;9.140;2023-04-06T05:09:31;98729.78;;;1.13
77223;BMP280;66218;48.928;9.140;2023-04-06T05:11:58;98730.22;;;1.19
77223;BMP280;66218;48.928;9.140;2023-04-06T05:14:23;98732.94;;;1.29
77223;BMP280;66218;48.928;9.140;2023-04-06T05:16:49;98737.69;;;1.38
77223;BMP280;66218;48.928;9.140;2023-04-06T05:19:14;98734.25;;;1.47
77223;BMP280;66218;48.928;9.140;2023-04-06T05:21:39;98724.97;;;1.60
77223;BMP280;66218;48.928;9.140;2023-04-06T05:24:05;98736.53;;;1.70
77223;BMP280;66218;48.928;9.140;2023-04-06T05:26:31;98740.25;;;1.85
77223;BMP280;66218;48.928;9.140;2023-04-06T05:28:56;98752.13;;;1.99
77223;BMP280;66218;48.928;9.140;2023-04-06T05:31:21;98754.81;;;2.09
77223;BMP280;66218;48.928;9.140;2023-04-06T05:33:47;98745.22;;;2.17
77223;BMP280;66218;48.928;9.140;2023-04-06T05:36:12;98749.75;;;2.34
77223;BMP280;66218;48.928;9.140;2023-04-06T05:38:38;98750.59;;;2.37
77223;BMP280;66218;48.928;9.140;2023-04-06T05:41:03;98755.75;;;2.42
77223;BMP280;66218;48.928;9.140;2023-04-06T05:43:28;98762.03;;;2.45
77223;BMP280;66218;48.928;9.140;2023-04-06T05:45:54;98753.69;;;2.52
77223;BMP280;66218;48.928;9.140;2023-04-06T05:48:19;98748.09;;;2.60
77223;BMP280;66218;48.928;9.140;2023-04-06T05:50:49;98753.75;;;2.74
77223;BMP280;66218;48.928;9.140;2023-04-06T05:53:18;98751.41;;;2.90
77223;BMP280;66218;48.928;9.140;2023-04-06T05:55:43;98752.03;;;3.00
77223;BMP280;66218;48.928;9.140;2023-04-06T05:58:09;98756.72;;;3.09
77223;BMP280;66218;48.928;9.140;2023-04-06T06:00:35;98749.91;;;3.20
77223;BMP280;66218;48.928;9.140;2023-04-06T06:03:00;98755.03;;;3.25
77223;BMP280;66218;48.928;9.140;2023-04-06T06:05:25;98762.69;;;3.39
77223;BMP280;66218;48.928;9.140;2023-04-06T06:07:51;98761.31;;;3.49
77223;BMP280;66218;48.928;9.140;2023-04-06T06:10:16;98757.91;;;3.60
77223;BMP280;66218;48.928;9.140;2023-04-06T06:12:42;98759.47;;;3.64
77223;BMP280;66218;48.928;9.140;2023-04-06T06:15:07;98755.81;;;3.71
77223;BMP280;66218;48.928;9.140;2023-04-06T06:17:33;98759.91;;;3.81
77223;BMP280;66218;48.928;9.140;2023-04-06T06:19:58;98769.66;;;3.96
77223;BMP280;66218;48.928;9.140;2023-04-06T06:22:24;98766.13;;;4.05
77223;BMP280;66218;48.928;9.140;2023-04-06T06:24:49;98759.34;;;4.18
77223;BMP280;66218;48.928;9.140;2023-04-06T06:27:15;98766.19;;;4.29
77223;BMP280;66218;48.928;9.140;2023-04-06T06:29:41;98777.56;;;4.49
77223;BMP280;66218;48.928;9.140;2023-04-06T06:32:06;98771.31;;;4.58
77223;BMP280;66218;48.928;9.140;2023-04-06T06:34:34;98777.47;;;4.70
77223;BMP280;66218;48.928;9.140;2023-04-06T06:36:59;98777.09;;;4.87
77223;BMP280;66218;48.928;9.140;2023-04-06T06:39:25;98777.53;;;4.96
77223;BMP280;66218;48.928;9.140;2023-04-06T06:41:51;98783.63;;;5.06
77223;BMP280;66218;48.928;9.140;2023-04-06T06:44:16;98783.00;;;5.19
77223;BMP280;66218;48.928;9.140;2023-04-06T06:46:42;98786.06;;;5.25
77223;BMP280;66218;48.928;9.140;2023-04-06T06:49:07;98776.88;;;5.32
77223;BMP280;66218;48.928;9.140;2023-04-06T06:51:33;98781.53;;;5.30
77223;BMP280;66218;48.928;9.140;2023-04-06T06:53:58;98783.53;;;5.29
77223;BMP280;66218;48.928;9.140;2023-04-06T06:56:24;98787.00;;;5.30
77223;BMP280;66218;48.928;9.140;2023-04-06T06:58:51;98781.81;;;5.47
77223;BMP280;66218;48.928;9.140;2023-04-06T07:01:17;98786.47;;;5.57
77223;BMP280;66218;48.928;9.140;2023-04-06T07:03:42;98788.31;;;5.66
77223;BMP280;66218;48.928;9.140;2023-04-06T07:06:07;98785.28;;;5.73
77223;BMP280;66218;48.928;9.140;2023-04-06T07:08:33;98783.91;;;5.86
77223;BMP280;66218;48.928;9.140;2023-04-06T07:10:58;98786.09;;;6.02
77223;BMP280;66218;48.928;9.140;2023-04-06T07:13:24;98788.56;;;6.09
77223;BMP280;66218;48.928;9.140;2023-04-06T07:15:50;98794.28;;;6.27
77223;BMP280;66218;48.928;9.140;2023-04-06T07:18:16;98794.19;;;6.39
77223;BMP280;66218;48.928;9.140;2023-04-06T07:20:41;98792.78;;;6.51
77223;BMP280;66218;48.928;9.140;2023-04-06T07:23:07;98789.44;;;6.67
77223;BMP280;66218;48.928;9.140;2023-04-06T07:25:32;98795.94;;;6.73
77223;BMP280;66218;48.928;9.140;2023-04-06T07:27:58;98795.75;;;6.83
77223;BMP280;66218;48.928;9.140;2023-04-06T07:30:23;98801.94;;;6.97
77223;BMP280;66218;48.928;9.140;2023-04-06T07:32:51;98802.44;;;7.07
77223;BMP280;66218;48.928;9.140;2023-04-06T07:35:16;98798.75;;;7.17
77223;BMP280;66218;48.928;9.140;2023-04-06T07:37:42;98798.09;;;7.32
77223;BMP280;66218;48.928;9.140;2023-04-06T07:40:08;98795.75;;;7.40
77223;BMP280;66218;48.928;9.140;2023-04-06T07:42:33;98798.16;;;7.48
77223;BMP280;66218;48.928;9.140;2023-04-06T07:44:58;98801.88;;;7.54
77223;BMP280;66218;48.928;9.140;2023-04-06T07:47:24;98799.97;;;7.57
77223;BMP280;66218;48.928;9.140;2023-04-06T07:49:49;98801.03;;;7.66
77223;BMP280;66218;48.928;9.140;2023-04-06T07:52:15;98800.00;;;7.73
77223;BMP280;66218;48.928;9.140;2023-04-06T07:54:41;98794.06;;;7.78
77223;BMP280;66218;48.928;9.140;2023-04-06T07:57:06;98794.69;;;7.93
77223;BMP280;66218;48.928;9.140;2023-04-06T07:59:32;98796.50;;;8.02
77223;BMP280;66218;48.928;9.140;2023-04-06T08:01:57;98800.41;;;8.12
77223;BMP280;66218;48.928;9.140;2023-04-06T08:04:22;98796.59;;;8.20
77223;BMP280;66218;48.928;9.140;2023-04-06T08:06:48;98799.69;;;8.28
77223;BMP280;66218;48.928;9.140;2023-04-06T08:09:13;98801.03;;;8.42
77223;BMP280;66218;48.928;9.140;2023-04-06T08:11:38;98798.50;;;8.49
77223;BMP280;66218;48.928;9.140;2023-04-06T08:14:04;98798.69;;;8.53
77223;BMP280;66218;48.928;9.140;2023-04-06T08:16:29;98804.53;;;8.61
77223;BMP280;66218;48.928;9.140;2023-04-06T08:18:55;98792.47;;;8.68
77223;BMP280;66218;48.928;9.140;2023-04-06T08:21:20;98794.50;;;8.67
77223;BMP280;66218;48.928;9.140;2023-04-06T08:23:46;98796.25;;;8.77
77223;BMP280;66218;48.928;9.140;2023-04-06T08:26:11;98795.28;;;8.86
77223;BMP280;66218;48.928;9.140;2023-04-06T08:28:37;98802.75;;;9.01
77223;BMP280;66218;48.928;9.140;2023-04-06T08:31:04;98795.00;;;9.13
77223;BMP280;66218;48.928;9.140;2023-04-06T08:33:30;98797.50;;;9.25
77223;BMP280;66218;48.928;9.140;2023-04-06T08:35:56;98798.56;;;9.34
77223;BMP280;66218;48.928;9.140;2023-04-06T08:38:21;98789.91;;;9.41
77223;BMP280;66218;48.928;9.140;2023-04-06T08:40:47;98795.09;;;9.33
77223;BMP280;66218;48.928;9.140;2023-04-06T08:43:16;98798.47;;;9.32
77223;BMP280;66218;48.928;9.140;2023-04-06T08:45:43;98801.06;;;9.27
77223;BMP280;66218;48.928;9.140;2023-04-06T08:48:09;98792.88;;;9.29
77223;BMP280;66218;48.928;9.140;2023-04-06T08:50:38;98800.50;;;9.31
77223;BMP280;66218;48.928;9.140;2023-04-06T08:53:04;98792.88;;;9.29
77223;BMP280;66218;48.928;9.140;2023-04-06T08:55:31;98795.09;;;9.33
77223;BMP280;66218;48.928;9.140;2023-04-06T08:57:56;98790.50;;;9.40
77223;BMP280;66218;48.928;9.140;2023-04-06T09:00:22;98787.28;;;9.45
77223;BMP280;66218;48.928;9.140;2023-04-06T09:02:49;98774.69;;;9.58
77223;BMP280;66218;48.928;9.140;2023-04-06T09:05:17;98786.63;;;9.65
77223;BMP280;66218;48.928;9.140;2023-04-06T09:07:42;98780.38;;;9.82
77223;BMP280;66218;48.928;9.140;2023-04-06T09:10:08;98784.22;;;9.93
77223;BMP280;66218;48.928;9.140;2023-04-06T09:12:34;98787.75;;;9.95
77223;BMP280;66218;48.928;9.140;2023-04-06T09:15:00;98781.13;;;10.02
77223;BMP280;66218;48.928;9.140;2023-04-06T09:17:31;98781.50;;;10.12
77223;BMP280;66218;48.928;9.140;2023-04-06T09:20:00;98778.56;;;10.08
77223;BMP280;66218;48.928;9.140;2023-04-06T09:22:35;98777.41;;;10.13
77223;BMP280;66218;48.928;9.140;2023-04-06T09:25:00;98782.19;;;10.13
77223;BMP280;66218;48.928;9.140;2023-04-06T09:27:35;98787.94;;;10.19
77223;BMP280;66218;48.928;9.140;2023-04-06T09:30:09;98786.94;;;10.30
77223;BMP280;66218;48.928;9.140;2023-04-06T09:32:48;98779.50;;;10.35
77223;BMP280;66218;48.928;9.140;2023-04-06T09:35:14;98776.13;;;10.36
77223;BMP280;66218;48.928;9.140;2023-04-06T09:37:40;98774.47;;;10.49
77223;BMP280;66218;48.928;9.140;2023-04-06T09:40:06;98775.38;;;10.56
77223;BMP280;66218;48.928;9.140;2023-04-06T09:42:33;98776.56;;;10.70
77223;BMP280;66218;48.928;9.140;2023-04-06T09:44:59;98771.19;;;10.75
77223;BMP280;66218;48.928;9.140;2023-04-06T09:47:24;98776.13;;;10.78
77223;BMP280;66218;48.928;9.140;2023-04-06T09:49:52;98773.56;;;10.84
77223;BMP280;66218;48.928;9.140;2023-04-06T09:52:21;98772.16;;;10.83
77223;BMP280;66218;48.928;9.140;2023-04-06T09:54:50;98772.16;;;10.83
77223;BMP280;66218;48.928;9.140;2023-04-06T09:57:25;98772.03;;;10.79
77223;BMP280;66218;48.928;9.140;2023-04-06T09:59:56;98772.91;;;10.86
77223;BMP280;66218;48.928;9.140;2023-04-06T10:02:32;98767.13;;;10.99
77223;BMP280;66218;48.928;9.140;2023-04-06T10:05:09;98764.69;;;11.10
77223;BMP280;66218;48.928;9.140;2023-04-06T10:07:36;98768.69;;;11.26
77223;BMP280;66218;48.928;9.140;2023-04-06T10:10:03;98769.75;;;11.39
77223;BMP280;66218;48.928;9.140;2023-04-06T10:12:29;98770.44;;;11.40
77223;BMP280;66218;48.928;9.140;2023-04-06T10:14:55;98765.22;;;11.50
77223;BMP280;66218;48.928;9.140;2023-04-06T10:17:21;98769.44;;;11.53
77223;BMP280;66218;48.928;9.140;2023-04-06T10:19:58;98760.94;;;11.69
77223;BMP280;66218;48.928;9.140;2023-04-06T10:22:32;98767.97;;;11.74
77223;BMP280;66218;48.928;9.140;2023-04-06T10:25:01;98755.06;;;11.82
77223;BMP280;66218;48.928;9.140;2023-04-06T10:27:30;98755.22;;;11.88
77223;BMP280;66218;48.928;9.140;2023-04-06T10:30:04;98757.16;;;12.08
77223;BMP280;66218;48.928;9.140;2023-04-06T10:32:33;98762.41;;;12.24
77223;BMP280;66218;48.928;9.140;2023-04-06T10:35:08;98754.38;;;12.34
77223;BMP280;66218;48.928;9.140;2023-04-06T10:38:12;98760.03;;;12.38
77223;BMP280;66218;48.928;9.140;2023-04-06T10:40:40;98749.44;;;12.58
77223;BMP280;66218;48.928;9.140;2023-04-06T10:43:09;98751.53;;;12.60
77223;BMP280;66218;48.928;9.140;2023-04-06T10:45:35;98740.88;;;12.76
77223;BMP280;66218;48.928;9.140;2023-04-06T10:48:12;98741.50;;;12.72
77223;BMP280;66218;48.928;9.140;2023-04-06T10:50:39;98752.97;;;12.91
77223;BMP280;66218;48.928;9.140;2023-04-06T10:53:05;98751.19;;;13.03
77223;BMP280;66218;48.928;9.140;2023-04-06T10:55:31;98747.06;;;13.04
77223;BMP280;66218;48.928;9.140;2023-04-06T10:57:57;98744.75;;;13.25
77223;BMP280;66218;48.928;9.140;2023-04-06T11:00:22;98741.53;;;13.37
77223;BMP280;66218;48.928;9.140;2023-04-06T11:02:48;98743.97;;;13.54
77223;BMP280;66218;48.928;9.140;2023-04-06T11:05:14;98740.69;;;13.64
77223;BMP280;66218;48.928;9.140;2023-04-06T11:07:40;98740.13;;;13.72
77223;BMP280;66218;48.928;9.140;2023-04-06T11:10:07;98749.31;;;13.80
77223;BMP280;66218;48.928;9.140;2023-04-06T11:12:33;98746.19;;;13.98
77223;BMP280;66218;48.928;9.140;2023-04-06T11:15:03;98737.50;;;14.18
77223;BMP280;66218;48.928;9.140;2023-04-06T11:17:33;98730.81;;;14.31
77223;BMP280;66218;48.928;9.140;2023-04-06T11:19:59;98729.06;;;14.10
77223;BMP280;66218;48.928;9.140;2023-04-06T11:22:25;98719.53;;;14.21
77223;BMP280;66218;48.928;9.140;2023-04-06T11:24:51;98715.63;;;14.36
77223;BMP280;66218;48.928;9.140;2023-04-06T11:27:17;98717.16;;;14.47
77223;BMP280;66218;48.928;9.140;2023-04-06T11:29:43;98724.31;;;14.61
77223;BMP280;66218;48.928;9.140;2023-04-06T11:32:11;98723.09;;;14.72
77223;BMP280;66218;48.928;9.140;2023-04-06T11:34:39;98716.47;;;14.95
77223;BMP280;66218;48.928;9.140;2023-04-06T11:37:10;98717.41;;;15.10
77223;BMP280;66218;48.928;9.140;2023-04-06T11:39:43;98707.78;;;15.19
77223;BMP280;66218;48.928;9.140;2023-04-06T11:42:09;98708.53;;;15.22
77223;BMP280;66218;48.928;9.140;2023-04-06T11:44:39;98702.72;;;15.05
77223;BMP280;66218;48.928;9.140;2023-04-06T11:47:07;98703.09;;;14.79
77223;BMP280;66218;48.928;9.140;2023-04-06T11:49:37;98705.03;;;14.71
77223;BMP280;66218;48.928;9.140;2023-04-06T11:52:03;98702.09;;;14.61
77223;BMP280;66218;48.928;9.140;2023-04-06T11:54:38;98706.06;;;14.45
77223;BMP280;66218;48.928;9.140;2023-04-06T11:57:05;98703.47;;;14.60
77223;BMP280;66218;48.928;9.140;2023-04-06T11:59:34;98696.59;;;14.65
77223;BMP280;66218;48.928;9.140;2023-04-06T12:02:01;98685.66;;;14.77
77223;BMP280;66218;48.928;9.140;2023-04-06T12:04:26;98682.91;;;14.31
77223;BMP280;66218;48.928;9.140;2023-04-06T12:06:52;98689.56;;;14.58
77223;BMP280;66218;48.928;9.140;2023-04-06T12:09:17;98686.31;;;14.73
77223;BMP280;66218;48.928;9.140;2023-04-06T12:11:43;98686.38;;;14.77
77223;BMP280;66218;48.928;9.140;2023-04-06T12:14:09;98684.09;;;14.62
77223;BMP280;66218;48.928;9.140;2023-04-06T12:16:34;98674.31;;;14.61
77223;BMP280;66218;48.928;9.140;2023-04-06T12:19:00;98687.44;;;14.54
77223;BMP280;66218;48.928;9.140;2023-04-06T12:21:30;98677.16;;;14.65
77223;BMP280;66218;48.928;9.140;2023-04-06T12:23:59;98670.81;;;14.58
77223;BMP280;66218;48.928;9.140;2023-04-06T12:26:25;98673.81;;;14.72
77223;BMP280;66218;48.928;9.140;2023-04-06T12:28:51;98679.66;;;14.93
77223;BMP280;66218;48.928;9.140;2023-04-06T12:31:17;98673.72;;;15.19
77223;BMP280;66218;48.928;9.140;2023-04-06T12:33:46;98673.63;;;15.12
77223;BMP280;66218;48.928;9.140;2023-04-06T12:36:12;98668.78;;;15.13
77223;BMP280;66218;48.928;9.140;2023-04-06T12:38:39;98668.19;;;15.21
77223;BMP280;66218;48.928;9.140;2023-04-06T12:41:06;98664.03;;;15.22
77223;BMP280;66218;48.928;9.140;2023-04-06T12:43:34;98660.63;;;15.27
77223;BMP280;66218;48.928;9.140;2023-04-06T12:46:00;98664.34;;;15.52
77223;BMP280;66218;48.928;9.140;2023-04-06T12:48:25;98668.56;;;15.55
77223;BMP280;66218;48.928;9.140;2023-04-06T12:51:15;98663.19;;;15.73
77223;BMP280;66218;48.928;9.140;2023-04-06T12:53:48;98654.91;;;15.86
77223;BMP280;66218;48.928;9.140;2023-04-06T12:56:18;98660.94;;;15.60
77223;BMP280;66218;48.928;9.140;2023-04-06T12:58:45;98650.97;;;15.36
77223;BMP280;66218;48.928;9.140;2023-04-06T13:01:10;98660.47;;;15.84
77223;BMP280;66218;48.928;9.140;2023-04-06T13:03:41;98655.66;;;15.88
77223;BMP280;66218;48.928;9.140;2023-04-06T13:06:09;98652.75;;;15.76
77223;BMP280;66218;48.928;9.140;2023-04-06T13:08:35;98649.75;;;15.52
77223;BMP280;66218;48.928;9.140;2023-04-06T13:11:04;98648.19;;;15.36
77223;BMP280;66218;48.928;9.140;2023-04-06T13:13:30;98652.41;;;15.41
77223;BMP280;66218;48.928;9.140;2023-04-06T13:16:00;98641.97;;;15.40
77223;BMP280;66218;48.928;9.140;2023-04-06T13:18:29;98641.25;;;15.37
77223;BMP280;66218;48.928;9.140;2023-04-06T13:20:56;98632.94;;;15.39
77223;BMP280;66218;48.928;9.140;2023-04-06T13:23:22;98630.88;;;15.42
77223;BMP280;66218;48.928;9.140;2023-04-06T13:25:47;98634.47;;;15.55
77223;BMP280;66218;48.928;9.140;2023-04-06T13:28:15;98635.84;;;15.52
77223;BMP280;66218;48.928;9.140;2023-04-06T13:30:41;98640.28;;;15.81
77223;BMP280;66218;48.928;9.140;2023-04-06T13:33:06;98634.28;;;16.15
77223;BMP280;66218;48.928;9.140;2023-04-06T13:35:37;98630.19;;;16.28
77223;BMP280;66218;48.928;9.140;2023-04-06T13:38:02;98622.75;;;16.65
77223;BMP280;66218;48.928;9.140;2023-04-06T13:40:28;98624.31;;;17.09
77223;BMP280;66218;48.928;9.140;2023-04-06T13:42:56;98624.34;;;17.17
77223;BMP280;66218;48.928;9.140;2023-04-06T13:45:21;98625.00;;;16.93
77223;BMP280;66218;48.928;9.140;2023-04-06T13:47:47;98624.25;;;16.91
77223;BMP280;66218;48.928;9.140;2023-04-06T13:50:12;98616.66;;;17.14
77223;BMP280;66218;48.928;9.140;2023-04-06T13:52:37;98615.31;;;17.29
77223;BMP280;66218;48.928;9.140;2023-04-06T13:55:03;98618.78;;;17.21
77223;BMP280;66218;48.928;9.140;2023-04-06T13:57:28;98609.69;;;17.05
77223;BMP280;66218;48.928;9.140;2023-04-06T13:59:55;98605.50;;;17.10
77223;BMP280;66218;48.928;9.140;2023-04-06T14:02:20;98612.53;;;17.37
77223;BMP280;66218;48.928;9.140;2023-04-06T14:04:47;98611.88;;;17.71
77223;BMP280;66218;48.928;9.140;2023-04-06T14:07:13;98613.25;;;17.80
77223;BMP280;66218;48.928;9.140;2023-04-06T14:09:38;98612.56;;;17.80
77223;BMP280;66218;48.928;9.140;2023-04-06T14:12:03;98608.34;;;18.07